Time;durP1;ratioP1;P1;durP2;ratioP2;P2;SDS_P1;SDS_P2;PMS_P1;PMS_P2;Temp;Humidity;BMP_temperature;BMP_pressure;BME280_temperature;BME280_humidity;BME280_pressure;Samples;Min_cycle;Max_cycle;Signal;HPM_P1;HPM_P2
2020/12/18 13:17:39;;;;;;;3.26;2.67;;;;;;;20.22;47.32;101103.81;;;;-52
2020/12/18 13:20:39;;;;;;;2.99;2.69;;;;;;;20.22;47.42;101106.74;;;;-54
2020/12/18 13:23:39;;;;;;;2.95;2.69;;;;;;;20.20;47.61;101108.75;;;;-54
2020/12/18 13:26:39;;;;;;;3.30;2.65;;;;;;;20.18;47.63;101110.84;;;;-55
2020/12/18 13:29:39;;;;;;;3.01;2.71;;;;;;;20.15;47.43;101112.08;;;;-51
2020/12/18 13:32:39;;;;;;;2.78;2.58;;;;;;;20.13;47.78;101112.98;;;;-46
2020/12/18 13:35:39;;;;;;;3.73;2.72;;;;;;;20.11;47.77;101110.75;;;;-47
2020/12/18 13:38:39;;;;;;;3.42;2.66;;;;;;;20.11;47.84;101106.84;;;;-51
2020/12/18 13:41:39;;;;;;;3.33;2.83;;;;;;;20.09;47.79;101102.83;;;;-62
2020/12/18 13:44:39;;;;;;;2.97;2.77;;;;;;;20.08;47.76;101099.79;;;;-57
2020/12/18 13:47:39;;;;;;;3.55;2.67;;;;;;;20.09;47.90;101097.05;;;;-51
2020/12/18 13:50:40;;;;;;;2.95;2.71;;;;;;;20.07;47.90;101096.78;;;;-54
2020/12/18 13:53:40;;;;;;;4.82;2.89;;;;;;;20.06;47.35;101096.83;;;;-50
2020/12/18 13:56:39;;;;;;;3.58;2.89;;;;;;;19.99;47.41;101097.39;;;;-50
2020/12/18 13:59:39;;;;;;;3.57;2.95;;;;;;;19.94;47.54;101090.39;;;;-58
2020/12/18 14:02:39;;;;;;;3.31;2.93;;;;;;;19.91;47.60;101087.51;;;;-50
2020/12/18 14:05:39;;;;;;;3.23;2.71;;;;;;;19.87;47.54;101082.41;;;;-50
2020/12/18 14:08:39;;;;;;;5.26;2.83;;;;;;;19.89;47.92;101080.16;;;;-52
2020/12/18 14:11:39;;;;;;;6.32;2.85;;;;;;;19.93;48.14;101082.09;;;;-52
2020/12/18 14:14:39;;;;;;;4.23;2.78;;;;;;;19.99;48.00;101078.27;;;;-53
2020/12/18 14:17:39;;;;;;;3.67;2.79;;;;;;;20.04;48.15;101077.77;;;;-57
2020/12/18 14:20:39;;;;;;;3.39;2.68;;;;;;;20.07;48.33;101082.13;;;;-57
2020/12/18 14:23:39;;;;;;;3.18;2.81;;;;;;;20.10;48.38;101084.69;;;;-53
2020/12/18 14:26:39;;;;;;;4.37;2.71;;;;;;;20.12;48.52;101086.91;;;;-54
2020/12/18 14:29:39;;;;;;;2.85;2.62;;;;;;;20.16;48.54;101088.34;;;;-56
2020/12/18 14:32:39;;;;;;;3.59;2.53;;;;;;;20.19;48.69;101084.38;;;;-55
2020/12/18 14:35:39;;;;;;;2.67;2.46;;;;;;;20.19;48.67;101085.31;;;;-58
2020/12/18 14:38:39;;;;;;;3.36;2.77;;;;;;;20.19;48.39;101076.00;;;;-58
2020/12/18 14:41:39;;;;;;;3.67;2.49;;;;;;;20.20;48.34;101073.51;;;;-59
2020/12/18 14:44:39;;;;;;;3.33;2.82;;;;;;;20.19;48.24;101073.48;;;;-58
2020/12/18 14:47:39;;;;;;;3.19;2.49;;;;;;;20.18;48.27;101074.78;;;;-58
2020/12/18 14:50:39;;;;;;;3.01;2.69;;;;;;;20.18;48.23;101075.52;;;;-59
2020/12/18 14:53:39;;;;;;;2.90;2.57;;;;;;;20.19;48.19;101074.30;;;;-58
2020/12/18 14:56:39;;;;;;;2.91;2.49;;;;;;;20.19;48.17;101076.57;;;;-59
2020/12/18 14:59:39;;;;;;;4.06;2.90;;;;;;;20.18;48.18;101075.36;;;;-59
2020/12/18 15:02:39;;;;;;;3.85;2.47;;;;;;;20.19;48.13;101075.52;;;;-59
2020/12/18 15:05:39;;;;;;;2.81;2.61;;;;;;;20.20;48.13;101071.72;;;;-59
2020/12/18 15:08:39;;;;;;;2.78;2.58;;;;;;;20.20;48.16;101070.83;;;;-59
2020/12/18 15:11:39;;;;;;;2.71;2.51;;;;;;;20.19;48.13;101070.14;;;;-59
2020/12/18 15:14:39;;;;;;;4.35;2.80;;;;;;;20.20;48.30;101069.84;;;;-54
2020/12/18 15:17:39;;;;;;;3.31;2.71;;;;;;;20.22;48.47;101070.28;;;;-53
2020/12/18 15:20:39;;;;;;;2.69;2.48;;;;;;;20.25;48.53;101071.20;;;;-53
2020/12/18 15:23:39;;;;;;;3.69;2.60;;;;;;;20.26;48.59;101068.22;;;;-50
2020/12/18 15:26:39;;;;;;;2.66;2.46;;;;;;;20.28;48.73;101063.69;;;;-52
2020/12/18 15:29:39;;;;;;;3.33;2.53;;;;;;;20.30;48.67;101071.28;;;;-51
2020/12/18 15:32:39;;;;;;;2.73;2.53;;;;;;;20.31;48.76;101072.91;;;;-60
2020/12/18 15:35:39;;;;;;;2.77;2.57;;;;;;;20.32;48.78;101074.48;;;;-51
2020/12/18 15:38:39;;;;;;;2.58;2.33;;;;;;;20.34;48.90;101072.15;;;;-53
2020/12/18 15:41:39;;;;;;;3.49;2.60;;;;;;;20.36;48.89;101083.08;;;;-57
2020/12/18 15:44:39;;;;;;;2.94;2.49;;;;;;;20.36;48.84;101084.38;;;;-53
2020/12/18 15:47:39;;;;;;;3.15;2.50;;;;;;;20.37;48.91;101085.69;;;;-54
2020/12/18 15:50:39;;;;;;;3.02;2.39;;;;;;;20.38;48.88;101079.04;;;;-52
2020/12/18 15:53:39;;;;;;;3.01;2.58;;;;;;;20.39;48.92;101081.56;;;;-55
2020/12/18 15:56:39;;;;;;;3.92;2.55;;;;;;;20.42;48.93;101081.67;;;;-57
2020/12/18 15:59:39;;;;;;;3.21;2.65;;;;;;;20.43;48.89;101076.89;;;;-55
2020/12/18 16:02:39;;;;;;;2.79;2.50;;;;;;;20.44;48.84;101077.48;;;;-58
2020/12/18 16:05:39;;;;;;;3.20;2.78;;;;;;;20.44;48.81;101075.29;;;;-57
2020/12/18 16:08:39;;;;;;;2.75;2.48;;;;;;;20.45;48.91;101071.70;;;;-55
2020/12/18 16:11:39;;;;;;;3.19;2.73;;;;;;;20.48;48.87;101076.05;;;;-47
2020/12/18 16:14:39;;;;;;;3.19;2.45;;;;;;;20.48;48.87;101075.64;;;;-48
2020/12/18 16:17:39;;;;;;;2.79;2.52;;;;;;;20.49;48.95;101072.33;;;;-55
2020/12/18 16:20:39;;;;;;;3.07;2.77;;;;;;;20.51;48.77;101070.88;;;;-57
2020/12/18 16:23:39;;;;;;;3.52;2.65;;;;;;;20.49;48.59;101068.25;;;;-57
2020/12/18 16:26:39;;;;;;;2.84;2.64;;;;;;;20.49;48.51;101065.97;;;;-56
2020/12/18 16:29:39;;;;;;;3.65;2.70;;;;;;;20.46;48.53;101058.14;;;;-59
2020/12/18 16:32:39;;;;;;;3.05;2.69;;;;;;;20.47;48.55;101051.21;;;;-58
2020/12/18 16:35:39;;;;;;;3.87;2.58;;;;;;;20.48;48.71;101048.39;;;;-59
2020/12/18 16:38:39;;;;;;;5.56;2.78;;;;;;;20.49;48.52;101042.44;;;;-59
2020/12/18 16:41:39;;;;;;;3.65;2.71;;;;;;;20.48;48.43;101038.75;;;;-51
2020/12/18 16:44:39;;;;;;;3.03;2.70;;;;;;;20.46;48.38;101027.84;;;;-51
2020/12/18 16:47:39;;;;;;;3.49;2.68;;;;;;;20.46;48.35;101032.22;;;;-58
2020/12/18 16:50:40;;;;;;;3.08;2.83;;;;;;;20.43;48.34;101029.83;;;;-58
2020/12/18 16:53:39;;;;;;;3.06;2.76;;;;;;;20.44;48.25;101029.26;;;;-58
2020/12/18 16:56:39;;;;;;;3.74;2.73;;;;;;;20.40;48.42;101027.53;;;;-59
2020/12/18 16:59:39;;;;;;;4.70;2.98;;;;;;;20.39;48.34;101025.30;;;;-52
2020/12/18 17:02:40;;;;;;;4.89;3.43;;;;;;;20.39;48.01;101022.95;;;;-52
2020/12/18 17:05:39;;;;;;;4.97;3.83;;;;;;;20.39;48.19;101025.39;;;;-53
2020/12/18 17:08:39;;;;;;;5.07;3.85;;;;;;;20.38;48.00;101025.23;;;;-53
2020/12/18 17:11:39;;;;;;;4.73;3.80;;;;;;;20.38;47.87;101028.56;;;;-52
2020/12/18 17:14:39;;;;;;;4.64;3.69;;;;;;;20.38;48.48;101026.05;;;;-49
2020/12/18 17:17:39;;;;;;;4.75;3.81;;;;;;;20.38;48.28;101023.57;;;;-54
2020/12/18 17:20:39;;;;;;;4.60;3.68;;;;;;;20.38;48.12;101025.20;;;;-59
2020/12/18 17:23:39;;;;;;;4.05;3.63;;;;;;;20.37;48.05;101025.45;;;;-55
2020/12/18 17:26:39;;;;;;;4.81;3.68;;;;;;;20.38;48.06;101023.52;;;;-54
2020/12/18 17:29:39;;;;;;;6.31;3.75;;;;;;;20.38;48.12;101019.98;;;;-48
2020/12/18 17:32:39;;;;;;;4.80;3.60;;;;;;;20.38;48.12;101018.36;;;;-55
2020/12/18 17:35:39;;;;;;;4.04;3.64;;;;;;;20.38;48.24;101015.63;;;;-57
2020/12/18 17:38:39;;;;;;;3.85;3.55;;;;;;;20.38;48.27;101006.99;;;;-55
2020/12/18 17:41:39;;;;;;;4.03;3.59;;;;;;;20.38;48.19;101004.88;;;;-52
2020/12/18 17:44:39;;;;;;;3.73;3.39;;;;;;;20.39;48.53;101010.33;;;;-57
2020/12/18 17:47:39;;;;;;;3.97;3.51;;;;;;;20.39;48.27;101005.20;;;;-50
2020/12/18 17:50:39;;;;;;;4.05;3.65;;;;;;;20.39;48.33;101002.27;;;;-53
2020/12/18 17:53:39;;;;;;;4.22;3.78;;;;;;;20.39;48.24;100994.45;;;;-55
2020/12/18 17:56:39;;;;;;;4.15;3.74;;;;;;;20.37;47.95;100992.23;;;;-51
2020/12/18 17:59:39;;;;;;;3.94;3.61;;;;;;;20.38;48.20;100996.08;;;;-53
2020/12/18 18:02:39;;;;;;;4.13;3.73;;;;;;;20.38;48.27;100991.45;;;;-50
2020/12/18 18:05:39;;;;;;;3.95;3.61;;;;;;;20.39;48.25;100995.43;;;;-61
2020/12/18 18:08:39;;;;;;;4.11;3.71;;;;;;;20.40;48.26;100999.01;;;;-49
2020/12/18 18:11:39;;;;;;;3.79;3.49;;;;;;;20.40;48.56;101001.12;;;;-47
2020/12/18 18:14:39;;;;;;;3.87;3.57;;;;;;;20.40;48.24;100999.01;;;;-58
2020/12/18 18:17:39;;;;;;;4.64;3.76;;;;;;;20.42;48.55;101001.06;;;;-58
2020/12/18 18:20:39;;;;;;;4.35;3.61;;;;;;;20.44;48.18;100999.66;;;;-51
2020/12/18 18:23:39;;;;;;;4.74;3.52;;;;;;;20.45;48.29;101000.63;;;;-52
2020/12/18 18:26:39;;;;;;;5.68;3.37;;;;;;;20.47;48.61;101005.12;;;;-57
2020/12/18 18:29:41;;;;;;;3.88;3.48;;;;;;;20.49;48.74;100998.55;;;;-54
2020/12/18 18:32:39;;;;;;;3.59;3.29;;;;;;;20.50;48.79;100992.94;;;;-54
2020/12/18 18:35:39;;;;;;;3.55;3.25;;;;;;;20.52;48.83;100991.98;;;;-51
2020/12/18 18:38:39;;;;;;;6.15;3.31;;;;;;;20.52;48.50;100997.03;;;;-57
2020/12/18 18:41:39;;;;;;;3.98;3.61;;;;;;;20.51;48.39;101002.32;;;;-58
2020/12/18 18:44:40;;;;;;;4.08;3.68;;;;;;;20.50;48.35;100995.30;;;;-58
2020/12/18 18:47:39;;;;;;;3.62;3.32;;;;;;;20.50;48.26;100986.09;;;;-57
2020/12/18 18:50:39;;;;;;;4.65;3.24;;;;;;;20.49;48.25;100985.20;;;;-58
2020/12/18 18:53:39;;;;;;;3.61;3.26;;;;;;;20.49;48.25;100974.53;;;;-51
2020/12/18 18:56:39;;;;;;;4.13;3.21;;;;;;;20.48;48.21;100952.56;;;;-58
2020/12/18 18:59:39;;;;;;;3.43;3.13;;;;;;;20.48;48.20;100941.24;;;;-57
2020/12/18 19:02:40;;;;;;;4.15;3.37;;;;;;;20.48;48.17;100936.27;;;;-57
2020/12/18 19:05:39;;;;;;;3.59;3.29;;;;;;;20.48;48.14;100929.84;;;;-57
2020/12/18 19:08:40;;;;;;;3.31;3.01;;;;;;;20.48;48.14;100928.22;;;;-57
2020/12/18 19:11:39;;;;;;;3.73;3.21;;;;;;;20.47;48.17;100917.52;;;;-58
2020/12/18 19:14:39;;;;;;;3.63;3.31;;;;;;;20.48;48.14;100909.41;;;;-58
2020/12/18 19:17:39;;;;;;;3.53;3.15;;;;;;;20.48;48.08;100901.75;;;;-57
2020/12/18 19:20:40;;;;;;;3.81;3.43;;;;;;;20.49;48.09;100901.34;;;;-58
2020/12/18 19:23:39;;;;;;;3.78;3.30;;;;;;;20.47;48.08;100889.92;;;;-58
2020/12/18 19:26:39;;;;;;;3.51;3.21;;;;;;;20.47;48.08;100893.26;;;;-58
2020/12/18 19:29:39;;;;;;;3.61;3.27;;;;;;;20.46;48.11;100896.73;;;;-58
2020/12/18 19:32:39;;;;;;;3.50;3.20;;;;;;;20.46;48.07;100896.69;;;;-59
2020/12/18 19:35:39;;;;;;;4.33;3.29;;;;;;;20.46;48.09;100897.23;;;;-58
2020/12/18 19:38:39;;;;;;;3.70;3.33;;;;;;;20.45;48.23;100907.00;;;;-61
2020/12/18 19:41:39;;;;;;;4.31;3.61;;;;;;;20.46;48.13;100895.47;;;;-50
2020/12/18 19:44:41;;;;;;;4.49;3.29;;;;;;;20.47;48.28;100892.05;;;;-47
2020/12/18 19:47:39;;;;;;;4.69;3.61;;;;;;;20.48;48.42;100888.78;;;;-50
2020/12/18 19:50:39;;;;;;;3.46;3.16;;;;;;;20.47;48.52;100889.11;;;;-49
2020/12/18 19:53:39;;;;;;;3.82;3.50;;;;;;;20.46;48.56;100893.19;;;;-58
2020/12/18 19:56:39;;;;;;;4.28;3.34;;;;;;;20.45;48.33;100903.17;;;;-58
2020/12/18 19:59:39;;;;;;;4.04;3.37;;;;;;;20.41;48.37;100901.67;;;;-58
2020/12/18 20:02:39;;;;;;;5.53;3.51;;;;;;;20.41;48.38;100907.29;;;;-56
2020/12/18 20:05:39;;;;;;;4.03;3.45;;;;;;;20.39;48.53;100902.55;;;;-47
2020/12/18 20:08:39;;;;;;;3.65;3.35;;;;;;;20.38;48.58;100907.68;;;;-47
2020/12/18 20:11:41;;;;;;;6.80;3.55;;;;;;;20.38;48.67;100911.23;;;;-57
2020/12/18 20:14:40;;;;;;;3.79;3.43;;;;;;;20.36;48.76;100913.44;;;;-49
2020/12/18 20:17:39;;;;;;;3.81;3.44;;;;;;;20.35;48.70;100919.77;;;;-52
2020/12/18 20:20:39;;;;;;;3.85;3.49;;;;;;;20.33;48.70;100924.14;;;;-51
2020/12/18 20:23:39;;;;;;;6.32;3.55;;;;;;;20.32;48.72;100924.47;;;;-50
2020/12/18 20:26:39;;;;;;;3.71;3.37;;;;;;;20.30;48.76;100927.70;;;;-57
2020/12/18 20:29:39;;;;;;;4.43;3.39;;;;;;;20.28;48.71;100935.90;;;;-51
2020/12/18 20:32:39;;;;;;;4.69;3.77;;;;;;;20.26;48.73;100936.28;;;;-49
2020/12/18 20:35:39;;;;;;;3.91;3.51;;;;;;;20.25;48.71;100935.93;;;;-49
2020/12/18 20:38:39;;;;;;;3.99;3.39;;;;;;;20.24;48.66;100941.55;;;;-49
2020/12/18 20:41:40;;;;;;;4.97;3.59;;;;;;;20.21;48.78;100945.28;;;;-54
2020/12/18 20:44:39;;;;;;;5.51;3.72;;;;;;;20.21;48.61;100954.28;;;;-54
2020/12/18 20:47:39;;;;;;;5.00;3.22;;;;;;;20.18;48.54;100956.95;;;;-54
2020/12/18 20:50:39;;;;;;;4.05;3.64;;;;;;;20.14;48.53;100962.59;;;;-54
2020/12/18 20:53:39;;;;;;;3.55;3.24;;;;;;;20.12;48.48;100963.88;;;;-52
2020/12/18 20:56:39;;;;;;;4.57;3.35;;;;;;;20.08;48.54;100968.54;;;;-58
2020/12/18 20:59:39;;;;;;;3.61;3.31;;;;;;;20.04;48.49;100961.98;;;;-58
2020/12/18 21:02:39;;;;;;;3.65;3.35;;;;;;;20.01;48.49;100958.87;;;;-57
2020/12/18 21:05:39;;;;;;;4.25;3.45;;;;;;;19.98;48.56;100958.27;;;;-57
2020/12/18 21:08:39;;;;;;;5.85;3.40;;;;;;;19.97;48.77;100960.45;;;;-59
2020/12/18 21:11:39;;;;;;;4.27;3.44;;;;;;;19.95;48.78;100963.02;;;;-48
2020/12/18 21:14:39;;;;;;;4.17;3.46;;;;;;;19.94;48.76;100951.52;;;;-49
2020/12/18 21:17:40;;;;;;;4.48;3.52;;;;;;;19.92;48.80;100944.91;;;;-47
2020/12/18 21:20:40;;;;;;;3.73;3.40;;;;;;;19.91;48.82;100928.97;;;;-48
2020/12/18 21:23:39;;;;;;;4.31;3.49;;;;;;;19.89;48.90;100936.10;;;;-46
2020/12/18 21:26:39;;;;;;;3.78;3.36;;;;;;;19.88;48.96;100926.18;;;;-49
2020/12/18 21:29:39;;;;;;;3.46;3.16;;;;;;;19.87;48.91;100914.27;;;;-52
2020/12/18 21:32:39;;;;;;;3.87;3.56;;;;;;;19.85;48.95;100905.95;;;;-47
2020/12/18 21:35:43;;;;;;;3.85;3.39;;;;;;;19.84;48.96;100906.28;;;;-48
2020/12/18 21:38:39;;;;;;;4.20;3.80;;;;;;;19.82;48.95;100908.21;;;;-50
2020/12/18 21:41:39;;;;;;;5.70;3.60;;;;;;;19.82;48.98;100905.50;;;;-57
2020/12/18 21:44:39;;;;;;;4.94;3.49;;;;;;;19.81;48.99;100903.14;;;;-56
2020/12/18 21:47:39;;;;;;;3.95;3.55;;;;;;;19.80;49.02;100901.44;;;;-58
2020/12/18 21:50:39;;;;;;;4.06;3.64;;;;;;;19.79;49.07;100891.89;;;;-55
2020/12/18 21:53:39;;;;;;;4.08;3.60;;;;;;;19.77;49.06;100886.58;;;;-48
2020/12/18 21:56:39;;;;;;;4.31;3.62;;;;;;;19.76;49.15;100889.19;;;;-51
2020/12/18 21:59:39;;;;;;;4.01;3.61;;;;;;;19.76;49.08;100888.13;;;;-53
2020/12/18 22:02:39;;;;;;;4.52;3.73;;;;;;;19.74;49.13;100887.37;;;;-53
2020/12/18 22:05:39;;;;;;;3.75;3.39;;;;;;;19.73;49.13;100869.70;;;;-54
2020/12/18 22:08:39;;;;;;;4.06;3.63;;;;;;;19.72;49.15;100859.94;;;;-48
2020/12/18 22:11:39;;;;;;;4.17;3.77;;;;;;;19.70;49.16;100855.77;;;;-56
2020/12/18 22:14:39;;;;;;;4.00;3.60;;;;;;;19.69;49.13;100854.20;;;;-54
2020/12/18 22:17:39;;;;;;;5.32;3.45;;;;;;;19.67;49.18;100861.33;;;;-57
2020/12/18 22:20:39;;;;;;;4.09;3.69;;;;;;;19.66;49.23;100846.09;;;;-50
2020/12/18 22:23:39;;;;;;;3.99;3.65;;;;;;;19.65;49.18;100865.94;;;;-58
2020/12/18 22:26:39;;;;;;;4.11;3.49;;;;;;;19.64;49.19;100852.09;;;;-53
2020/12/18 22:29:39;;;;;;;3.80;3.50;;;;;;;19.62;49.27;100852.95;;;;-56
2020/12/18 22:32:39;;;;;;;3.99;3.59;;;;;;;19.61;49.24;100853.05;;;;-51
2020/12/18 22:35:39;;;;;;;4.64;3.61;;;;;;;19.61;49.24;100841.88;;;;-51
2020/12/18 22:38:39;;;;;;;5.09;3.75;;;;;;;19.60;49.28;100837.16;;;;-58
2020/12/18 22:41:39;;;;;;;4.74;3.92;;;;;;;19.59;49.29;100844.13;;;;-57
2020/12/18 22:44:39;;;;;;;4.35;3.67;;;;;;;19.56;49.29;100856.70;;;;-53
2020/12/18 22:47:39;;;;;;;3.92;3.53;;;;;;;19.56;49.38;100876.13;;;;-53
2020/12/18 22:50:39;;;;;;;4.98;3.40;;;;;;;19.56;49.38;100869.55;;;;-60
2020/12/18 22:53:41;;;;;;;4.11;3.71;;;;;;;19.53;49.28;100863.18;;;;-59
2020/12/18 22:56:39;;;;;;;6.39;3.55;;;;;;;19.51;49.22;100865.48;;;;-59
2020/12/18 22:59:39;;;;;;;4.14;3.46;;;;;;;19.48;49.17;100857.49;;;;-51
2020/12/18 23:02:39;;;;;;;3.91;3.47;;;;;;;19.46;49.16;100867.14;;;;-51
2020/12/18 23:05:39;;;;;;;3.63;3.31;;;;;;;19.44;49.08;100859.96;;;;-57
2020/12/18 23:08:39;;;;;;;4.63;3.55;;;;;;;19.41;49.08;100853.35;;;;-50
2020/12/18 23:11:39;;;;;;;3.81;3.39;;;;;;;19.39;49.06;100851.30;;;;-51
2020/12/18 23:14:39;;;;;;;3.95;3.53;;;;;;;19.37;49.07;100850.70;;;;-51
2020/12/18 23:17:39;;;;;;;4.48;3.71;;;;;;;19.34;49.05;100839.51;;;;-51
2020/12/18 23:20:39;;;;;;;4.31;3.71;;;;;;;19.32;49.02;100828.52;;;;-62
2020/12/18 23:23:39;;;;;;;4.05;3.65;;;;;;;19.29;49.01;100828.97;;;;-51
2020/12/18 23:26:40;;;;;;;3.84;3.37;;;;;;;19.27;49.01;100833.58;;;;-51
2020/12/18 23:29:39;;;;;;;4.02;3.51;;;;;;;19.25;49.02;100835.42;;;;-51
2020/12/18 23:32:39;;;;;;;4.03;3.61;;;;;;;19.23;48.96;100827.02;;;;-51
2020/12/18 23:35:39;;;;;;;4.04;3.63;;;;;;;19.21;48.97;100828.95;;;;-51
2020/12/18 23:38:39;;;;;;;4.06;3.69;;;;;;;19.19;48.97;100832.00;;;;-58
2020/12/18 23:41:39;;;;;;;4.97;3.53;;;;;;;19.17;48.93;100832.00;;;;-61
2020/12/18 23:44:39;;;;;;;4.05;3.54;;;;;;;19.15;48.99;100828.21;;;;-49
2020/12/18 23:47:39;;;;;;;4.27;3.61;;;;;;;19.13;48.99;100825.94;;;;-51
2020/12/18 23:50:39;;;;;;;3.86;3.56;;;;;;;19.11;48.99;100842.78;;;;-51
2020/12/18 23:53:39;;;;;;;3.91;3.61;;;;;;;19.09;48.96;100842.42;;;;-58
2020/12/18 23:56:39;;;;;;;3.95;3.55;;;;;;;19.06;48.95;100830.61;;;;-58
2020/12/18 23:59:39;;;;;;;3.99;3.65;;;;;;;19.05;49.01;100832.05;;;;-58
